createdAt,value
2023-05-03T00:04:16.419Z,14.20
2023-05-03T00:09:17.420Z,15.90
2023-05-03T00:14:18.727Z,15.80
2023-05-03T00:19:30.613Z,14.90
2023-05-03T00:24:33.721Z,13.50
2023-05-03T00:29:34.826Z,12.70
2023-05-03T00:34:38.853Z,12.30
2023-05-03T00:39:40.121Z,12.80
2023-05-03T00:44:41.429Z,12.40
2023-05-03T00:49:43.837Z,11.90
2023-05-03T00:54:45.259Z,12.20
2023-05-03T00:59:46.617Z,10.90
2023-05-03T01:04:47.982Z,11.60
2023-05-03T01:10:01.096Z,12.00
2023-05-03T01:15:06.166Z,12.10
2023-05-03T01:20:11.019Z,13.90
2023-05-03T01:25:14.472Z,12.40
2023-05-03T01:35:28.291Z,15.00
2023-05-03T01:40:35.465Z,15.40
2023-05-03T01:45:36.723Z,15.70
2023-05-03T01:50:38.086Z,15.80
2023-05-03T01:55:39.328Z,14.40
2023-05-03T02:00:40.372Z,15.00
2023-05-03T02:05:41.475Z,16.10
2023-05-03T02:10:45.530Z,13.10
2023-05-03T02:15:46.529Z,15.40
2023-05-03T02:20:47.569Z,10.90
2023-05-03T02:25:49.102Z,11.30
2023-05-03T02:30:50.337Z,12.90
2023-05-03T02:35:51.501Z,9.70
2023-05-03T02:40:52.782Z,12.60
2023-05-03T02:45:53.983Z,12.90
2023-05-03T02:50:55.625Z,12.00
2023-05-03T02:55:57.208Z,12.50
2023-05-03T03:00:58.447Z,13.10
2023-05-03T03:06:00.250Z,14.60
2023-05-03T03:11:03.026Z,15.50
2023-05-03T03:16:06.344Z,15.70
2023-05-03T03:21:07.687Z,14.80
2023-05-03T03:26:09.331Z,13.90
2023-05-03T03:31:10.697Z,15.70
2023-05-03T03:36:12.011Z,17.20
2023-05-03T03:41:13.868Z,14.40
2023-05-03T03:46:16.540Z,16.20
2023-05-03T03:51:18.210Z,14.80
2023-05-03T03:56:21.185Z,16.90
2023-05-03T04:01:23.683Z,15.20
2023-05-03T04:06:26.526Z,15.00
2023-05-03T04:11:29.311Z,15.80
2023-05-03T04:16:33.156Z,17.90
2023-05-03T04:21:35.707Z,15.10
2023-05-03T04:26:37.579Z,13.20
2023-05-03T04:31:43.775Z,14.80
2023-05-03T04:36:45.836Z,11.80
2023-05-03T04:41:47.339Z,13.00
2023-05-03T04:46:50.915Z,8.80
2023-05-03T04:56:56.852Z,10.50
2023-05-03T05:01:59.723Z,6.90
2023-05-03T05:07:00.989Z,7.30
2023-05-03T05:12:03.933Z,3.60
2023-05-03T05:17:09.256Z,7.40
2023-05-03T05:22:10.530Z,6.30
2023-05-03T05:27:17.028Z,5.10
2023-05-03T05:32:18.462Z,5.60
2023-05-03T05:37:24.262Z,5.40
2023-05-03T05:42:26.305Z,3.70
2023-05-03T05:47:27.996Z,4.50
2023-05-03T05:52:30.727Z,4.80
2023-05-03T05:57:32.102Z,5.20
2023-05-03T06:02:33.614Z,6.40
2023-05-03T06:07:35.317Z,4.30
2023-05-03T06:12:37.013Z,5.30
2023-05-03T06:17:40.348Z,4.10
2023-05-03T06:22:41.808Z,4.50
2023-05-03T06:27:44.499Z,5.10
2023-05-03T06:32:47.219Z,5.80
2023-05-03T06:37:48.833Z,5.20
2023-05-03T06:42:49.914Z,4.00
2023-05-03T06:47:58.267Z,5.40
2023-05-03T06:52:59.471Z,6.10
2023-05-03T06:58:00.803Z,5.50
2023-05-03T07:03:01.906Z,4.30
2023-05-03T07:08:08.780Z,4.60
2023-05-03T07:13:10.118Z,4.90
2023-05-03T07:18:11.082Z,5.40
2023-05-03T07:23:12.200Z,3.30
2023-05-03T07:28:13.324Z,4.80
2023-05-03T07:33:14.469Z,4.00
2023-05-03T07:38:16.176Z,3.60
2023-05-03T07:43:18.966Z,3.90
2023-05-03T07:48:20.069Z,4.50
2023-05-03T07:53:21.141Z,5.60
2023-05-03T07:58:31.439Z,4.90
2023-05-03T08:03:40.698Z,4.90
2023-05-03T08:08:42.260Z,5.70
2023-05-03T08:13:43.246Z,6.10
2023-05-03T08:18:45.299Z,5.10
2023-05-03T08:23:46.432Z,5.20
2023-05-03T08:28:47.507Z,4.60
2023-05-03T08:33:48.703Z,5.20
2023-05-03T08:38:49.943Z,5.50
2023-05-03T08:43:53.612Z,5.30
2023-05-03T08:48:55.286Z,13.40
2023-05-03T08:53:56.245Z,9.30
2023-05-03T08:59:04.248Z,8.70
2023-05-03T09:04:06.413Z,8.90
2023-05-03T09:09:30.793Z,3.30
2023-05-03T09:14:42.618Z,9.20
2023-05-03T09:19:51.996Z,4.90
2023-05-03T09:24:55.505Z,4.70
2023-05-03T09:29:56.724Z,3.70
2023-05-03T09:35:08.925Z,9.30
2023-05-03T09:40:11.708Z,7.80
2023-05-03T09:45:23.148Z,5.70
2023-05-03T09:50:24.980Z,7.70
2023-05-03T09:55:27.386Z,7.50
2023-05-03T10:00:29.939Z,9.30
2023-05-03T10:05:33.006Z,7.00
2023-05-03T10:10:34.956Z,4.80
2023-05-03T10:15:38.714Z,10.00
2023-05-03T10:20:44.995Z,7.00
2023-05-03T10:26:12.746Z,7.40
2023-05-03T10:31:46.323Z,9.00
2023-05-03T10:36:50.218Z,5.70
2023-05-03T10:41:59.107Z,4.80
2023-05-03T10:47:12.183Z,5.40
2023-05-03T10:52:35.221Z,5.40
2023-05-03T10:57:40.364Z,5.70
2023-05-03T11:03:25.405Z,7.60
2023-05-03T11:08:27.347Z,5.20
2023-05-03T11:13:28.623Z,4.80
2023-05-03T11:18:31.183Z,3.90
2023-05-03T11:23:32.403Z,4.80
2023-05-03T11:28:33.462Z,7.30
2023-05-03T11:33:36.943Z,6.00
2023-05-03T11:38:38.869Z,6.10
2023-05-03T11:43:44.806Z,4.60
2023-05-03T11:48:46.438Z,4.80
2023-05-03T11:53:47.969Z,4.60
2023-05-03T11:58:59.365Z,4.10
2023-05-03T12:04:03.310Z,5.60
2023-05-03T12:09:14.616Z,4.40
2023-05-03T12:14:16.184Z,4.40
2023-05-03T12:19:32.060Z,7.30
2023-05-03T12:24:34.617Z,6.10
2023-05-03T12:29:36.295Z,3.20
2023-05-03T12:34:40.910Z,4.90
2023-05-03T12:39:45.927Z,4.30
2023-05-03T12:44:53.690Z,4.20
2023-05-03T12:49:57.574Z,3.00
2023-05-03T12:55:03.661Z,4.10
2023-05-03T13:00:14.051Z,4.60
2023-05-03T13:05:26.801Z,3.50
2023-05-03T13:10:36.516Z,5.70
2023-05-03T13:15:37.951Z,4.70
2023-05-03T13:20:39.005Z,4.50
2023-05-03T13:25:40.379Z,4.60
2023-05-03T13:30:41.594Z,2.10
2023-05-03T13:35:42.775Z,5.00
2023-05-03T13:40:43.963Z,2.80
2023-05-03T13:45:45.009Z,3.40
2023-05-03T13:50:46.108Z,3.90
2023-05-03T13:55:47.360Z,2.60
2023-05-03T14:00:48.453Z,3.20
2023-05-03T14:05:49.492Z,3.80
2023-05-03T14:10:50.517Z,3.10
2023-05-03T14:15:51.727Z,4.10
2023-05-03T14:20:53.370Z,5.00
2023-05-03T14:25:54.419Z,4.20
2023-05-03T14:30:56.120Z,3.20
2023-05-03T14:35:57.714Z,2.90
2023-05-03T14:40:58.876Z,16.90
2023-05-03T14:46:01.135Z,5.60
2023-05-03T14:51:03.140Z,4.00
2023-05-03T14:56:04.304Z,2.10
2023-05-03T15:01:05.780Z,1.90
2023-05-03T15:06:07.432Z,2.80
2023-05-03T15:11:09.514Z,1.90
2023-05-03T15:16:10.983Z,5.20
2023-05-03T15:21:12.303Z,4.90
2023-05-03T15:26:13.731Z,6.20
2023-05-03T15:31:15.560Z,7.40
2023-05-03T15:36:16.812Z,4.30
2023-05-03T15:41:18.331Z,6.70
2023-05-03T15:46:19.369Z,5.10
2023-05-03T15:51:20.857Z,2.60
2023-05-03T15:56:22.099Z,2.50
2023-05-03T16:01:24.087Z,2.80
2023-05-03T16:06:25.258Z,2.50
2023-05-03T16:11:26.442Z,3.10
2023-05-03T16:16:27.548Z,3.30
2023-05-03T16:21:28.846Z,3.20
2023-05-03T16:26:31.158Z,5.30
2023-05-03T16:31:32.624Z,3.70
2023-05-03T16:36:34.478Z,2.50
2023-05-03T16:41:36.252Z,2.80
2023-05-03T16:46:39.470Z,9.30
2023-05-03T16:51:40.957Z,4.70
2023-05-03T16:56:44.749Z,4.00
2023-05-03T17:01:46.015Z,6.20
2023-05-03T17:06:47.822Z,8.20
2023-05-03T17:11:48.884Z,3.00
2023-05-03T17:16:50.600Z,6.80
2023-05-03T17:21:52.023Z,5.60
2023-05-03T17:26:54.797Z,3.40
2023-05-03T17:31:56.020Z,3.60
2023-05-03T17:36:59.603Z,3.40
2023-05-03T17:42:00.968Z,2.80
2023-05-03T17:47:03.071Z,6.90
2023-05-03T17:52:04.273Z,4.00
2023-05-03T17:57:06.288Z,5.60
2023-05-03T18:02:07.540Z,4.70
2023-05-03T18:07:08.841Z,5.20
2023-05-03T18:12:10.035Z,6.00
2023-05-03T18:17:11.069Z,5.00
2023-05-03T18:22:12.637Z,8.20
2023-05-03T18:27:13.700Z,7.10
2023-05-03T18:32:15.057Z,7.90
2023-05-03T18:37:16.126Z,10.50
2023-05-03T18:42:19.849Z,13.70
2023-05-03T18:47:21.344Z,10.40
2023-05-03T18:52:23.037Z,11.00
2023-05-03T18:57:26.711Z,9.60
2023-05-03T19:07:31.716Z,16.80
2023-05-03T19:12:34.364Z,25.20
2023-05-03T19:17:36.316Z,22.70
2023-05-03T19:22:37.585Z,20.00
2023-05-03T19:27:38.919Z,28.30
2023-05-03T19:32:40.103Z,24.00
2023-05-03T19:37:43.117Z,22.20
2023-05-03T19:42:44.385Z,24.80
2023-05-03T19:47:45.527Z,22.10
2023-05-03T19:52:46.633Z,15.70
2023-05-03T19:57:48.744Z,6.40
2023-05-03T20:02:51.796Z,6.40
2023-05-03T20:07:53.039Z,7.90
2023-05-03T20:12:54.095Z,6.00
2023-05-03T20:17:55.623Z,6.60
2023-05-03T20:22:56.856Z,9.80
2023-05-03T20:27:57.831Z,11.60
2023-05-03T20:32:58.979Z,10.50
2023-05-03T20:38:00.292Z,11.10
2023-05-03T20:43:01.667Z,11.60
2023-05-03T20:48:02.814Z,14.30
2023-05-03T20:53:03.964Z,23.30
2023-05-03T20:58:05.272Z,22.00
2023-05-03T21:03:06.432Z,20.30
2023-05-03T21:08:07.528Z,12.80
2023-05-03T21:13:13.114Z,11.50
2023-05-03T21:18:14.236Z,10.50
2023-05-03T21:23:15.260Z,11.80
2023-05-03T21:28:16.545Z,8.90
2023-05-03T21:33:17.714Z,11.60
2023-05-03T21:38:19.187Z,12.10
2023-05-03T21:43:40.209Z,13.40
2023-05-03T21:49:01.204Z,10.50
2023-05-03T21:54:02.356Z,13.50
2023-05-03T21:59:03.375Z,15.70
2023-05-03T22:04:04.837Z,12.30
2023-05-03T22:09:06.307Z,9.10
2023-05-03T22:14:08.327Z,10.20
2023-05-03T22:19:11.260Z,11.80
2023-05-03T22:24:12.331Z,11.20
2023-05-03T22:29:13.829Z,8.60
2023-05-03T22:34:15.284Z,9.50
2023-05-03T22:39:16.624Z,7.60
2023-05-03T22:44:17.605Z,8.10
2023-05-03T22:49:18.972Z,9.30
2023-05-03T22:54:21.204Z,9.70
2023-05-03T22:59:22.348Z,8.70
2023-05-03T23:04:23.568Z,16.40
2023-05-03T23:09:25.777Z,12.00
2023-05-03T23:14:34.559Z,11.20
2023-05-03T23:19:36.408Z,10.70
2023-05-03T23:24:38.801Z,11.10
2023-05-03T23:29:39.986Z,11.50
2023-05-03T23:34:46.146Z,8.30
2023-05-03T23:40:07.807Z,8.90
2023-05-03T23:45:09.711Z,11.10
2023-05-03T23:50:15.439Z,11.00
2023-05-03T23:55:16.498Z,17.10
